Погода Миранти-ду-Паранапанемана неделю

Сан-Паулу, Бразилия

20 - 26 июля
  • 20июля
    Сегодня
    +14°
    +29°
    Ясно и безоблачно
    ВремяПогодаТемператураВлажностьДавлениеВетер, м/сВероятность осадков
    00:00Ясно и безоблачно+19°C64 %735 мм3.1 м/с5 %
    03:00Ясно и безоблачно+18°C69 %734 мм3.0 м/с5 %
    06:00Ясно и безоблачно+16°C72 %734 мм2.7 м/с5 %
    09:00Ясно и безоблачно+18°C66 %736 мм2.9 м/с5 %
    12:00Ясно и безоблачно+26°C39 %736 мм3.4 м/с5 %
    15:00Ясно и безоблачно+29°C32 %734 мм2.1 м/с5 %
    18:00Ясно и безоблачно+24°C47 %733 мм2.1 м/с5 %
    21:00Ясно и безоблачно+19°C56 %733 мм2.5 м/с5 %
  • 21июля
    Воскресенье
    +15°
    +30°
    Ясно и безоблачно
    ВремяПогодаТемператураВлажностьДавлениеВетер, м/сВероятность осадков
    00:00Ясно и безоблачно+18°C55 %733 мм2.9 м/с5 %
    03:00Ясно и безоблачно+16°C54 %732 мм3.5 м/с5 %
    06:00Ясно и безоблачно+15°C61 %732 мм3.2 м/с5 %
    09:00Ясно и безоблачно+17°C62 %734 мм3.2 м/с5 %
    12:00Ясно и безоблачно+25°C46 %734 мм3.0 м/с5 %
    15:00Ясно и безоблачно+30°C37 %732 мм1.9 м/с5 %
    18:00Ясно и безоблачно+25°C55 %732 мм2.8 м/с5 %
    21:00Ясно и безоблачно+21°C69 %733 мм3.2 м/с5 %
  • 22июля
    Понедельник
    +16°
    +31°
    Ясно и безоблачно
    ВремяПогодаТемператураВлажностьДавлениеВетер, м/сВероятность осадков
    00:00Ясно и безоблачно+19°C76 %733 мм2.4 м/с5 %
    03:00Ясно и безоблачно+18°C84 %733 мм2.4 м/с5 %
    06:00Ясно и безоблачно+16°C90 %733 мм2.6 м/с5 %
    09:00Ясно и безоблачно+19°C74 %735 мм2.7 м/с5 %
    12:00Ясно и безоблачно+27°C45 %735 мм2.2 м/с5 %
    15:00Ясно и безоблачно+30°C31 %733 мм0.8 м/с5 %
    18:00Ясно и безоблачно+26°C51 %733 мм2.7 м/с5 %
    21:00Ясно и безоблачно+22°C53 %734 мм2.8 м/с5 %
  • 23июля
    Вторник
    +16°
    +31°
    Практически безоблачно
    ВремяПогодаТемператураВлажностьДавлениеВетер, м/сВероятность осадков
    00:00Ясно и безоблачно+20°C58 %734 мм2.9 м/с5 %
    03:00Ясно и безоблачно+18°C64 %734 мм3.0 м/с5 %
    06:00Ясно и безоблачно+17°C71 %734 мм3.5 м/с5 %
    09:00Ясно и безоблачно+19°C66 %735 мм3.3 м/с5 %
    12:00Ясно и безоблачно+26°C45 %736 мм3.1 м/с5 %
    15:00Практически безоблачно+30°C30 %734 мм2.3 м/с5 %
    18:00Ясно и безоблачно+29°C37 %733 мм1.0 м/с5 %
    21:00Ясно и безоблачно+22°C58 %733 мм3.2 м/с5 %
  • 24июля
    Среда
    +17°
    +32°
    Практически безоблачно
    ВремяПогодаТемператураВлажностьДавлениеВетер, м/сВероятность осадков
    00:00Небольшая облачность+20°C58 %734 мм2.9 м/с5 %
    03:00Практически безоблачно+18°C60 %733 мм3.2 м/с5 %
    06:00Ясно и безоблачно+17°C66 %733 мм3.4 м/с5 %
    09:00Ясно и безоблачно+20°C57 %735 мм3.4 м/с5 %
    12:00Небольшая облачность+28°C37 %735 мм3.2 м/с5 %
    15:00Практически безоблачно+32°C27 %733 мм3.1 м/с5 %
    18:00Практически безоблачно+27°C45 %733 мм2.4 м/с5 %
    21:00Небольшая облачность+22°C54 %733 мм2.1 м/с5 %
Мы используем cookies
Соглашаюсь